Airport View

Enter AWOS ICAO identifier for current METAR.

ex. KFNL

KMTH 202353Z AUTO 06016KT 10SM FEW024 SCT110 29/23 A2997 RMK AO2 PK WND 07026/2305 SLP147 60000 T02890233 10317 20289 53011

21 Sep 2019 00:36

Frequency: 135.525

Phone: 305-743-8373

Other Area AWOS: KNQX - KEYW - KHST - KTMB

TAF KMTH 202333Z 2100/2124 07018G25KT P6SM VCSH SCT025 SCT040 FM210300 08017G25KT P6SM VCTS SCT025CB SCT040